Terminal Aerodrome Forecast
Issued by NWS

Home | Current Version | Previous Version | Text Only | Print | Product List | Glossary On
Versions: 1 2 3 4 5 6 7 8 9 10 11 12 13 14 15 16 17 18 19 20 21 22 23 24
000
FTUS44 KMOB 050539
TAFBFM
TAF
KBFM 050539Z 0506/0606 00000KT 2SM BR FEW060 BKN150
     FM051200 19006KT P6SM VCSH SCT030 BKN080
      TEMPO 0512/0516 5SM TSRA BKN025CB
     FM051600 19010KT P6SM VCTS SCT030CB BKN100
     FM052100 24008KT P6SM SCT050 BKN200=

USA.gov is the U.S. government's official web portal to all federal, state and local government web resources and services.